< < Back
Terminal Aerodrome Forecast


Current Version              Previous Versions:   1  2  3  4  5  6  7  8  9  

Terminal Aerodrome Forecast

718
FTUS44 KMRX 252320
TAFCHA
TAF
KCHA 252320Z 2600/2624 22008KT P6SM BKN050
     FM260500 22006KT P6SM VCTS BKN030CB
     FM260700 22006KT P6SM BKN050
     FM261300 32012KT P6SM BKN100=



Latest METAR

592
SAUS80 KWBC 260300
MTRCHA
METAR KCHA 260253Z 20008KT 10SM SCT028 SCT040 22/18 A2960 RMK AO2 SLP018
T02170183 53004


USA.gov is the U.S. government's official web portal to all federal, state and local government web resources and services.